CYRT

Rankin Inlet Airport

Rankin Inlet, Canada
METAR CYRT 230900Z 36007KT 15SM SCT150 BKN250 M19/M22 A3019 RMK AC3CI3 SLP231
Observed Flight Rules
Apr-23 @ 09:00 UTC (21 minutes ago) Visual Flight Rules
Wind Visibility Clouds
360° at 7 knots 15 miles
  • Scattered at 15,000' AGL
  • Broken at 25,000' AGL
Temperatures Readings
Current -19°C / -2°F
Dewpoint -22°C / -8°F
Humidity 77%
Altimeter 30.19" Hg
Pressure 1023.1 hPa
Elevation 32
METAR CYRT 230900Z 36007KT 15SM SCT150 BKN250 M19/M22 A3019 RMK AC3CI3 SLP231
Observed Flight Rules
Apr-23 @ 09:00 UTC
(21 minutes ago)
VFR
Wind Visibility
360° at 7 knots 15 miles
Clouds
  • Scattered at 15,000' AGL
  • Broken at 25,000' AGL
Temperature Dewpoint
-19°C / -2°F -22°C / -8°F
Humidity Altimeter Pressure
77% 30.19" Hg 1023.1 hPa